< Cyclone 202112 2021 Season Cyclone 202117 >
Cyclone 202115 (Marian)
General InformationDetailed Track InformationTrack Information on Google Maps || ResourceGoogle EarthGE AnimationAtom FeedGeoJSON
Year Month Day Hour Lat. Long. Wind (kt) Gust (kt) Direc. of Major Storm Axis Radius of Major Storm Axis (nm) Radius of Minor Storm Axis (nm) Direc. of Major Gale Axis Radius of Major Gale Axis (nm) Radius of Minor Gale Axis (nm) Image
2021 2 21 06 -13.2 129.8 15 45 symmetric - - symmetric - - Image
2021 2 21 12 -13.2 129.6 15 45 symmetric - - symmetric - - Image
2021 2 21 18 -13.2 129.4 15 45 symmetric - - symmetric - - Image
2021 2 22 00 -13.2 129.1 15 45 symmetric - - symmetric - - Image
2021 2 22 06 -12.9 127.9 15 45 symmetric - - symmetric - - Image
2021 2 22 12 -12.7 126.0 15 45 symmetric - - symmetric - - Image
2021 2 22 18 -12.4 124.5 15 45 symmetric - - symmetric - - Image
2021 2 23 00 -13.1 122.8 15 40 symmetric - - symmetric - - Image
2021 2 23 06 -13.2 120.9 15 40 symmetric - - symmetric - - Image
2021 2 23 12 -13.2 118.4 15 45 symmetric - - symmetric - - Image
2021 2 23 18 -13.1 116.3 15 45 symmetric - - symmetric - - Image
2021 2 24 00 -12.7 114.6 15 40 symmetric - - symmetric - - Image
2021 2 24 06 -12.7 112.4 20 40 symmetric - - symmetric - - Image
2021 2 24 12 -12.5 109.7 25 45 symmetric - - symmetric - - Image
2021 2 24 18 -12.1 108.0 30 45 symmetric - - symmetric - - Image
2021 2 25 00 -12.3 106.9 30 45 symmetric - - symmetric - - Image
2021 2 25 06 -12.9 105.8 30 45 symmetric - - symmetric - - Image
2021 2 25 12 -13.2 104.0 30 45 symmetric - - symmetric - - Image
2021 2 25 18 -13.7 102.3 35 50 symmetric - - symmetric - - Image
2021 2 26 00 -14.1 100.5 40 55 symmetric - - symmetric - - Image
2021 2 26 06 -14.4 98.9 40 55 symmetric - - symmetric - - Image
2021 2 26 12 -14.4 97.1 50 70 symmetric - - symmetric - - Image
2021 2 26 18 -14.4 95.8 50 70 symmetric - - symmetric - - Image
2021 2 27 00 -14.7 95.0 60 85 symmetric - - symmetric - - Image
2021 2 27 06 -15.2 94.1 60 85 symmetric - - symmetric - - Image
2021 2 27 12 -15.9 93.4 60 85 symmetric - - symmetric - - Image
2021 2 27 18 -16.3 92.6 60 85 symmetric - - symmetric - - Image
2021 2 28 00 -16.7 92.2 65 90 symmetric - - symmetric - - Image
2021 2 28 06 -17.0 91.7 65 90 symmetric - - symmetric - - Image
2021 2 28 12 -17.4 91.3 80 110 symmetric - - symmetric - - Image
2021 2 28 18 -17.6 90.9 80 110 symmetric - - symmetric - - Image
2021 3 1 00 -17.7 90.4 80 110 symmetric - - symmetric - - Image
2021 3 1 06 -17.8 90.0 80 110 symmetric - - symmetric - - Image
2021 3 1 12 -18.1 89.6 80 110 symmetric - - symmetric - - Image
2021 3 1 18 -18.3 89.6 80 110 symmetric - - symmetric - - Image
2021 3 2 00 -18.5 89.6 85 120 symmetric - - symmetric - - Image
2021 3 2 06 -18.5 89.7 80 110 symmetric - - symmetric - - Image
2021 3 2 12 -18.5 90.0 80 110 symmetric - - symmetric - - Image
2021 3 2 18 -18.5 90.4 65 90 symmetric - - symmetric - - Image
2021 3 3 00 -18.6 90.7 55 75 symmetric - - symmetric - - Image
2021 3 3 06 -18.8 91.3 50 70 symmetric - - symmetric - - Image
2021 3 3 12 -19.0 92.0 50 70 symmetric - - symmetric - - Image
2021 3 3 18 -19.8 92.8 50 70 symmetric - - symmetric - - Image
2021 3 4 00 -20.5 93.2 40 55 symmetric - - symmetric - - Image
2021 3 4 06 -21.0 93.6 45 65 symmetric - - symmetric - - Image
2021 3 4 12 -21.6 94.1 45 65 symmetric - - symmetric - - Image
2021 3 4 18 -22.3 94.6 45 65 symmetric - - symmetric - - Image
2021 3 5 00 -22.9 94.8 45 65 symmetric - - symmetric - - Image
2021 3 5 06 -23.6 94.9 45 65 symmetric - - symmetric - - Image
2021 3 5 12 -24.3 95.2 45 65 symmetric - - symmetric - - Image
2021 3 5 18 -25.0 95.7 40 55 symmetric - - symmetric - - Image
2021 3 6 00 -25.7 96.2 40 50 symmetric - - symmetric - - Image
2021 3 6 06 -26.4 96.6 40 50 symmetric - - symmetric - - Image
2021 3 6 12 -27.2 96.7 40 50 symmetric - - symmetric - - Image
2021 3 6 18 -27.8 96.9 30 45 symmetric - - symmetric - - Image
2021 3 7 00 -28.4 97.2 30 45 symmetric - - symmetric - - Image
2021 3 7 06 -28.6 96.7 30 45 symmetric - - symmetric - - Image
2021 3 7 12 -28.0 96.7 25 40 symmetric - - symmetric - - Image
2021 3 7 18 -28.0 97.3 20 40 symmetric - - symmetric - - Image
2021 3 8 00 -28.7 97.7 15 35 symmetric - - symmetric - - Image
2021 3 8 06 -29.5 98.2 15 35 symmetric - - symmetric - - Image
2021 3 8 12 -30.2 98.3 15 35 symmetric - - symmetric - - Image
2021 3 9 00 -31.4 97.9 15 35 symmetric - - symmetric - - Image
< Cyclone 202112 2021 Season Cyclone 202117 >

Help